sensor_id;sensor_type;location;lat;lon;timestamp;pressure;altitude;pressure_sealevel;temperature
38249;BMP280;24045;51.138;17.126;2023-04-25T00:08:29;99315.73;;;9.22
38249;BMP280;24045;51.138;17.126;2023-04-25T00:23:32;99299.83;;;9.24
38249;BMP280;24045;51.138;17.126;2023-04-25T00:38:35;99305.45;;;9.29
38249;BMP280;24045;51.138;17.126;2023-04-25T00:53:38;99317.77;;;9.24
38249;BMP280;24045;51.138;17.126;2023-04-25T01:08:41;99319.88;;;9.15
38249;BMP280;24045;51.138;17.126;2023-04-25T01:23:46;99318.61;;;9.02
38249;BMP280;24045;51.138;17.126;2023-04-25T01:38:49;99327.18;;;8.86
38249;BMP280;24045;51.138;17.126;2023-04-25T01:53:53;99336.15;;;8.82
38249;BMP280;24045;51.138;17.126;2023-04-25T02:08:56;99335.33;;;8.76
38249;BMP280;24045;51.138;17.126;2023-04-25T02:23:59;99344.78;;;8.67
38249;BMP280;24045;51.138;17.126;2023-04-25T02:39:02;99337.00;;;8.49
38249;BMP280;24045;51.138;17.126;2023-04-25T02:54:05;99325.90;;;8.26
38249;BMP280;24045;51.138;17.126;2023-04-25T03:09:09;99340.73;;;8.09
38249;BMP280;24045;51.138;17.126;2023-04-25T03:24:11;99338.64;;;7.95
38249;BMP280;24045;51.138;17.126;2023-04-25T03:39:15;99337.63;;;7.77
38249;BMP280;24045;51.138;17.126;2023-04-25T03:54:18;99343.68;;;7.62
38249;BMP280;24045;51.138;17.126;2023-04-25T04:09:21;99346.67;;;7.65
38249;BMP280;24045;51.138;17.126;2023-04-25T04:24:26;99356.37;;;7.83
38249;BMP280;24045;51.138;17.126;2023-04-25T04:39:29;99367.80;;;8.17
38249;BMP280;24045;51.138;17.126;2023-04-25T04:54:31;99375.05;;;8.55
38249;BMP280;24045;51.138;17.126;2023-04-25T05:09:34;99376.06;;;9.39
38249;BMP280;24045;51.138;17.126;2023-04-25T05:24:37;99387.88;;;9.99
38249;BMP280;24045;51.138;17.126;2023-04-25T05:39:39;99380.34;;;10.91
38249;BMP280;24045;51.138;17.126;2023-04-25T05:54:42;99373.70;;;11.48
38249;BMP280;24045;51.138;17.126;2023-04-25T06:09:45;99376.39;;;11.38
38249;BMP280;24045;51.138;17.126;2023-04-25T06:24:48;99382.91;;;11.58
38249;BMP280;24045;51.138;17.126;2023-04-25T06:39:51;99377.79;;;12.15
38249;BMP280;24045;51.138;17.126;2023-04-25T06:54:53;99379.04;;;13.00
38249;BMP280;24045;51.138;17.126;2023-04-25T07:09:56;99376.67;;;15.06
38249;BMP280;24045;51.138;17.126;2023-04-25T07:24:59;99357.26;;;15.52
38249;BMP280;24045;51.138;17.126;2023-04-25T07:40:02;99363.30;;;15.99
38249;BMP280;24045;51.138;17.126;2023-04-25T07:55:06;99368.75;;;16.80
38249;BMP280;24045;51.138;17.126;2023-04-25T08:10:11;99366.66;;;16.36
38249;BMP280;24045;51.138;17.126;2023-04-25T08:25:13;99364.23;;;17.06
38249;BMP280;24045;51.138;17.126;2023-04-25T08:40:16;99371.80;;;17.83
38249;BMP280;24045;51.138;17.126;2023-04-25T08:55:20;99382.06;;;15.90
38249;BMP280;24045;51.138;17.126;2023-04-25T09:10:23;99380.20;;;14.67
38249;BMP280;24045;51.138;17.126;2023-04-25T09:25:33;99390.95;;;14.48
38249;BMP280;24045;51.138;17.126;2023-04-25T09:40:44;99388.14;;;15.87
38249;BMP280;24045;51.138;17.126;2023-04-25T09:55:48;99398.00;;;14.51
38249;BMP280;24045;51.138;17.126;2023-04-25T10:10:50;99401.86;;;14.71
38249;BMP280;24045;51.138;17.126;2023-04-25T10:25:54;99408.11;;;15.24
38249;BMP280;24045;51.138;17.126;2023-04-25T10:41:07;99390.23;;;15.72
38249;BMP280;24045;51.138;17.126;2023-04-25T10:56:19;99393.98;;;15.76
38249;BMP280;24045;51.138;17.126;2023-04-25T11:11:22;99391.11;;;15.92
38249;BMP280;24045;51.138;17.126;2023-04-25T11:26:26;99377.04;;;16.30
38249;BMP280;24045;51.138;17.126;2023-04-25T11:41:30;99373.44;;;16.44
38249;BMP280;24045;51.138;17.126;2023-04-25T11:56:33;99372.52;;;16.25
38249;BMP280;24045;51.138;17.126;2023-04-25T12:11:46;99383.34;;;15.14
38249;BMP280;24045;51.138;17.126;2023-04-25T12:26:58;99381.46;;;14.57
38249;BMP280;24045;51.138;17.126;2023-04-25T12:42:02;99389.90;;;15.27
38249;BMP280;24045;51.138;17.126;2023-04-25T12:57:08;99395.02;;;15.00
38249;BMP280;24045;51.138;17.126;2023-04-25T13:12:11;99392.96;;;14.70
38249;BMP280;24045;51.138;17.126;2023-04-25T13:27:14;99394.90;;;15.03
38249;BMP280;24045;51.138;17.126;2023-04-25T13:42:17;99382.05;;;15.66
38249;BMP280;24045;51.138;17.126;2023-04-25T13:57:20;99394.67;;;14.88
38249;BMP280;24045;51.138;17.126;2023-04-25T14:12:23;99402.54;;;14.06
38249;BMP280;24045;51.138;17.126;2023-04-25T14:27:26;99401.35;;;14.39
38249;BMP280;24045;51.138;17.126;2023-04-25T14:42:31;99405.69;;;14.61
38249;BMP280;24045;51.138;17.126;2023-04-25T14:57:35;99422.52;;;14.35
38249;BMP280;24045;51.138;17.126;2023-04-25T15:12:38;99445.92;;;13.53
38249;BMP280;24045;51.138;17.126;2023-04-25T15:27:40;99459.84;;;12.71
38249;BMP280;24045;51.138;17.126;2023-04-25T15:42:47;99484.96;;;12.23
38249;BMP280;24045;51.138;17.126;2023-04-25T15:57:53;99481.91;;;12.30
38249;BMP280;24045;51.138;17.126;2023-04-25T16:12:55;99494.75;;;12.23
38249;BMP280;24045;51.138;17.126;2023-04-25T16:27:58;99502.29;;;11.96
38249;BMP280;24045;51.138;17.126;2023-04-25T16:43:01;99520.19;;;11.79
38249;BMP280;24045;51.138;17.126;2023-04-25T16:58:03;99530.87;;;11.50
38249;BMP280;24045;51.138;17.126;2023-04-25T17:13:06;99551.87;;;11.28
38249;BMP280;24045;51.138;17.126;2023-04-25T17:28:10;99600.48;;;9.88
38249;BMP280;24045;51.138;17.126;2023-04-25T17:43:12;99625.68;;;8.65
38249;BMP280;24045;51.138;17.126;2023-04-25T17:58:16;99614.64;;;8.28
38249;BMP280;24045;51.138;17.126;2023-04-25T18:13:18;99633.55;;;8.36
38249;BMP280;24045;51.138;17.126;2023-04-25T18:28:28;99677.09;;;8.57
38249;BMP280;24045;51.138;17.126;2023-04-25T18:43:30;99682.33;;;8.58
38249;BMP280;24045;51.138;17.126;2023-04-25T18:58:34;99707.89;;;8.69
38249;BMP280;24045;51.138;17.126;2023-04-25T19:13:36;99717.71;;;8.82
38249;BMP280;24045;51.138;17.126;2023-04-25T19:28:41;99730.49;;;8.79
38249;BMP280;24045;51.138;17.126;2023-04-25T19:43:44;99738.88;;;8.59
38249;BMP280;24045;51.138;17.126;2023-04-25T19:58:46;99740.08;;;8.10
38249;BMP280;24045;51.138;17.126;2023-04-25T20:13:49;99746.48;;;7.50
38249;BMP280;24045;51.138;17.126;2023-04-25T20:28:53;99762.70;;;6.87
38249;BMP280;24045;51.138;17.126;2023-04-25T20:43:57;99780.13;;;6.51
38249;BMP280;24045;51.138;17.126;2023-04-25T20:59:00;99781.33;;;6.20
38249;BMP280;24045;51.138;17.126;2023-04-25T21:14:02;99780.94;;;5.82
38249;BMP280;24045;51.138;17.126;2023-04-25T21:29:06;99796.67;;;5.48
38249;BMP280;24045;51.138;17.126;2023-04-25T21:44:09;99801.77;;;5.14
38249;BMP280;24045;51.138;17.126;2023-04-25T21:59:14;99821.58;;;5.00
38249;BMP280;24045;51.138;17.126;2023-04-25T22:14:17;99832.80;;;4.79
38249;BMP280;24045;51.138;17.126;2023-04-25T22:29:19;99841.36;;;4.49
38249;BMP280;24045;51.138;17.126;2023-04-25T22:44:22;99857.68;;;4.22
38249;BMP280;24045;51.138;17.126;2023-04-25T22:59:25;99865.63;;;3.86
38249;BMP280;24045;51.138;17.126;2023-04-25T23:14:28;99866.41;;;3.56
38249;BMP280;24045;51.138;17.126;2023-04-25T23:29:31;99875.48;;;3.31
38249;BMP280;24045;51.138;17.126;2023-04-25T23:44:35;99871.89;;;3.19
38249;BMP280;24045;51.138;17.126;2023-04-25T23:59:38;99875.95;;;3.17
